Browns Mills, New Jersey
Current Conditions -  °F | °C
As of 7:33 AM on Friday 24 Oct 2014 (Local Time) from KWRI Reporting Station
Overcast Overcast  
Wind Chill: 52°   Ceiling: 2900
Heat Index: 52°   Visibility: 10mi
Dew Point: 45°   Wind: 10mph
Humidity: 76%   Direction: 300°WNW
Pressure: 29.8"   Gusts: NA
Location:  39.97°N, 74.57°W
Report Text: KWRI 241133Z AUTO 30009KT 10SM BKN029 OVC150 11/07 A2980 RMK AO2 CIG 029V150
Loading
Personal Weather Stations






























Interactive Weather Map
Tropical Storm Tracking
New forecast layout! Learn more

10-Day Weather Forecast

Advertisements
Track Severe Weather on mobile